Wardwell, Mississippi
Current Conditions -  °F | °C
As of 8:53 AM on Thursday 30 Oct 2014 (Local Time) from KTUP Reporting Station
Clear Clear  
Wind Chill: 49°   Ceiling: Unl
Heat Index: 49°   Visibility: 10mi
Dew Point: 44°   Wind: 3mph
Humidity: 83%   Direction: 40°NE
Pressure: 30.17"   Gusts: NA
Location:  33.9472°N, 89.1968°W
Report Text: KTUP 301353Z 04003KT 10SM CLR 09/07 A3017 RMK AO2 SLP215 T00940067
Loading
Personal Weather Stations






























Interactive Weather Map
Tropical Storm Tracking
New forecast layout! Learn more

10-Day Weather Forecast

Advertisements
Track Severe Weather on mobile